JST59 YBBN-WADD
Flight info
| Callsign | JST59 |
|---|---|
| Flight time | 6h 6m |
| Altitude | 34000 |
| Route | WACKO4/01R WACKO V250 UNVAT DCT TAVEV/N0457F360 G326 GUNAM/N0450F380 G326 NYOMA |
| Aircraft | A320/M-SDE3FGHIRWY/LB1 |
Departure
| Time | 2026-04-30 05:59 |
|---|---|
| Airport | Brisbane International Airport (YBBN) |
Arrival
| Time | 2026-04-30 12:06 |
|---|---|
| Airport | Denpasar I Gusti Ngurah Rai International Airport (WADD) |
| Time | Latitude | Longitude | Altitude | Speed | Heading |
|---|---|---|---|---|---|
| 2026-04-30 05:51 | -27.40051 | 153.11335 | 18 ft | 0 kts | 297° |
| 2026-04-30 05:54 | -27.40057 | 153.11349 | 18 ft | 4 kts | 291° |
| 2026-04-30 05:54 | -27.40065 | 153.11378 | 21 ft | 4 kts | 279° |
| 2026-04-30 05:55 | -27.40069 | 153.11408 | 21 ft | 4 kts | 288° |
| 2026-04-30 05:55 | -27.40080 | 153.11430 | 19 ft | 4 kts | 321° |
| 2026-04-30 05:55 | -27.40103 | 153.11441 | 20 ft | 4 kts | 5° |
| 2026-04-30 05:55 | -27.40128 | 153.11433 | 18 ft | 2 kts | 28° |
| 2026-04-30 05:56 | -27.40129 | 153.11432 | 18 ft | 0 kts | 29° |
| 2026-04-30 05:58 | -27.40302 | 153.11785 | 19 ft | 0 kts | 29° |
| 2026-04-30 05:58 | -27.40296 | 153.11790 | 20 ft | 3 kts | 31° |
| 2026-04-30 05:58 | -27.40260 | 153.11818 | 19 ft | 20 kts | 35° |
| 2026-04-30 05:58 | -27.39923 | 153.12032 | 20 ft | 89 kts | 26° |
| 2026-04-30 05:59 | -27.39201 | 153.12442 | 20 ft | 141 kts | 27° |
| 2026-04-30 05:59 | -27.38215 | 153.13036 | 68 ft | 176 kts | 30° |
| 2026-04-30 05:59 | -27.37126 | 153.13661 | 689 ft | 177 kts | 29° |
| 2026-04-30 05:59 | -27.35932 | 153.14093 | 1245 ft | 184 kts | 12° |
| 2026-04-30 06:00 | -27.34646 | 153.14086 | 1817 ft | 188 kts | 350° |
| 2026-04-30 06:00 | -27.33459 | 153.13478 | 2405 ft | 190 kts | 323° |
| 2026-04-30 06:00 | -27.32454 | 153.12452 | 2732 ft | 204 kts | 319° |
| 2026-04-30 06:00 | -27.31465 | 153.11187 | 2867 ft | 229 kts | 303° |
| 2026-04-30 06:01 | -27.30626 | 153.09563 | 3106 ft | 252 kts | 297° |
| 2026-04-30 06:01 | -27.29801 | 153.07698 | 3405 ft | 276 kts | 295° |
| 2026-04-30 06:01 | -27.28957 | 153.05712 | 4021 ft | 285 kts | 295° |
| 2026-04-30 06:01 | -27.28089 | 153.03681 | 4820 ft | 290 kts | 295° |
| 2026-04-30 06:02 | -27.27200 | 153.01635 | 5656 ft | 294 kts | 296° |
| 2026-04-30 06:02 | -27.26286 | 152.99569 | 6500 ft | 297 kts | 296° |
| 2026-04-30 06:02 | -27.25354 | 152.97487 | 7266 ft | 299 kts | 296° |
| 2026-04-30 06:02 | -27.24410 | 152.95401 | 7970 ft | 301 kts | 296° |
| 2026-04-30 06:03 | -27.23467 | 152.93331 | 8719 ft | 304 kts | 297° |
| 2026-04-30 06:03 | -27.22496 | 152.91208 | 9467 ft | 307 kts | 296° |
| 2026-04-30 06:03 | -27.21517 | 152.89066 | 10213 ft | 310 kts | 296° |
| 2026-04-30 06:03 | -27.20520 | 152.86884 | 10562 ft | 326 kts | 296° |
| 2026-04-30 06:04 | -27.19447 | 152.84529 | 10698 ft | 348 kts | 296° |
| 2026-04-30 06:04 | -27.18336 | 152.82091 | 11057 ft | 359 kts | 297° |
| 2026-04-30 06:04 | -27.17176 | 152.79543 | 11623 ft | 363 kts | 297° |
| 2026-04-30 06:05 | -27.14864 | 152.74481 | 12854 ft | 369 kts | 297° |
| 2026-04-30 06:05 | -27.13686 | 152.71907 | 13455 ft | 373 kts | 297° |
| 2026-04-30 06:05 | -27.12498 | 152.69307 | 14055 ft | 375 kts | 297° |
| 2026-04-30 06:05 | -27.11297 | 152.66684 | 14600 ft | 378 kts | 297° |
| 2026-04-30 06:06 | -27.10094 | 152.64055 | 15146 ft | 379 kts | 297° |
| 2026-04-30 06:06 | -27.08888 | 152.61419 | 15693 ft | 381 kts | 297° |
| 2026-04-30 06:06 | -27.07674 | 152.58770 | 16233 ft | 382 kts | 297° |
| 2026-04-30 06:06 | -27.06459 | 152.56117 | 16785 ft | 384 kts | 297° |
| 2026-04-30 06:07 | -27.05230 | 152.53444 | 17350 ft | 385 kts | 297° |
| 2026-04-30 06:07 | -27.04000 | 152.50771 | 17920 ft | 386 kts | 297° |
| 2026-04-30 06:07 | -27.02765 | 152.48090 | 18490 ft | 388 kts | 297° |
| 2026-04-30 06:07 | -27.01520 | 152.45388 | 19002 ft | 390 kts | 297° |
| 2026-04-30 06:08 | -27.00272 | 152.42685 | 19509 ft | 391 kts | 297° |
| 2026-04-30 06:08 | -26.99021 | 152.39973 | 20047 ft | 393 kts | 297° |
| 2026-04-30 06:08 | -26.97764 | 152.37249 | 20570 ft | 394 kts | 296° |
| 2026-04-30 06:08 | -26.96502 | 152.34517 | 21086 ft | 395 kts | 296° |
| 2026-04-30 06:09 | -26.95240 | 152.31779 | 21593 ft | 397 kts | 296° |
| 2026-04-30 06:09 | -26.93968 | 152.29019 | 22085 ft | 398 kts | 296° |
| 2026-04-30 06:09 | -26.92694 | 152.26258 | 22555 ft | 400 kts | 296° |
| 2026-04-30 06:09 | -26.91412 | 152.23482 | 23012 ft | 401 kts | 296° |
| 2026-04-30 06:10 | -26.90121 | 152.20694 | 23449 ft | 404 kts | 296° |
| 2026-04-30 06:10 | -26.88825 | 152.17902 | 23872 ft | 406 kts | 296° |
| 2026-04-30 06:10 | -26.87519 | 152.15085 | 24233 ft | 407 kts | 296° |
| 2026-04-30 06:10 | -26.86211 | 152.12263 | 24581 ft | 409 kts | 296° |
| 2026-04-30 06:11 | -26.84916 | 152.09468 | 24925 ft | 411 kts | 296° |
| 2026-04-30 06:11 | -26.83595 | 152.06620 | 25263 ft | 413 kts | 296° |
| 2026-04-30 06:11 | -26.82269 | 152.03763 | 25599 ft | 414 kts | 296° |
| 2026-04-30 06:11 | -26.80935 | 152.00895 | 25934 ft | 416 kts | 296° |
| 2026-04-30 06:12 | -26.79600 | 151.98022 | 26255 ft | 417 kts | 296° |
| 2026-04-30 06:12 | -26.78257 | 151.95135 | 26573 ft | 419 kts | 296° |
| 2026-04-30 06:12 | -26.76910 | 151.92238 | 26895 ft | 421 kts | 296° |
| 2026-04-30 06:12 | -26.75555 | 151.89326 | 27203 ft | 423 kts | 296° |
| 2026-04-30 06:13 | -26.74190 | 151.86396 | 27517 ft | 424 kts | 296° |
| 2026-04-30 06:13 | -26.72824 | 151.83470 | 27822 ft | 426 kts | 296° |
| 2026-04-30 06:13 | -26.71445 | 151.80520 | 28122 ft | 428 kts | 296° |
| 2026-04-30 06:13 | -26.70063 | 151.77566 | 28425 ft | 429 kts | 296° |
| 2026-04-30 06:14 | -26.68675 | 151.74597 | 28737 ft | 431 kts | 296° |
| 2026-04-30 06:14 | -26.67289 | 151.71636 | 29170 ft | 429 kts | 296° |
| 2026-04-30 06:14 | -26.65903 | 151.68687 | 29613 ft | 428 kts | 296° |
| 2026-04-30 06:14 | -26.64517 | 151.65739 | 30045 ft | 427 kts | 296° |
| 2026-04-30 06:15 | -26.63159 | 151.62849 | 30449 ft | 425 kts | 296° |
| 2026-04-30 06:15 | -26.61787 | 151.59925 | 30815 ft | 424 kts | 296° |
| 2026-04-30 06:15 | -26.60415 | 151.56998 | 31190 ft | 423 kts | 296° |
| 2026-04-30 06:15 | -26.59054 | 151.54095 | 31560 ft | 421 kts | 296° |
| 2026-04-30 06:16 | -26.57693 | 151.51198 | 31940 ft | 420 kts | 296° |
| 2026-04-30 06:16 | -26.56341 | 151.48325 | 32318 ft | 418 kts | 296° |
| 2026-04-30 06:16 | -26.54991 | 151.45460 | 32710 ft | 416 kts | 296° |
| 2026-04-30 06:16 | -26.53645 | 151.42603 | 33093 ft | 414 kts | 296° |
| 2026-04-30 06:17 | -26.52307 | 151.39763 | 33480 ft | 413 kts | 296° |
| 2026-04-30 06:17 | -26.50968 | 151.36926 | 33865 ft | 411 kts | 296° |
| 2026-04-30 06:17 | -26.49641 | 151.34116 | 34191 ft | 410 kts | 296° |
| 2026-04-30 06:18 | -26.46961 | 151.28440 | 34260 ft | 418 kts | 296° |
| 2026-04-30 06:18 | -26.44252 | 151.22710 | 34259 ft | 421 kts | 296° |
| 2026-04-30 06:19 | -26.41500 | 151.16905 | 34255 ft | 421 kts | 296° |
| 2026-04-30 06:19 | -26.38769 | 151.11156 | 34248 ft | 422 kts | 296° |
| 2026-04-30 06:20 | -26.36463 | 151.06313 | 34249 ft | 422 kts | 296° |
| 2026-04-30 06:20 | -26.33730 | 151.00559 | 34247 ft | 422 kts | 296° |
| 2026-04-30 06:21 | -26.30999 | 150.94814 | 34249 ft | 422 kts | 296° |
| 2026-04-30 06:21 | -26.28243 | 150.89038 | 34245 ft | 422 kts | 296° |
| 2026-04-30 06:22 | -26.25481 | 150.83261 | 34242 ft | 423 kts | 296° |
| 2026-04-30 06:22 | -26.22718 | 150.77482 | 34243 ft | 423 kts | 296° |
| 2026-04-30 06:23 | -26.19946 | 150.71691 | 34240 ft | 423 kts | 296° |
| 2026-04-30 06:23 | -26.17177 | 150.65903 | 34239 ft | 423 kts | 296° |
| 2026-04-30 06:24 | -26.14397 | 150.60106 | 34236 ft | 424 kts | 296° |
| 2026-04-30 06:24 | -26.11614 | 150.54323 | 34238 ft | 424 kts | 296° |
| 2026-04-30 06:25 | -26.08840 | 150.48577 | 34237 ft | 424 kts | 296° |
| 2026-04-30 06:25 | -26.06059 | 150.42788 | 34237 ft | 424 kts | 296° |
| 2026-04-30 06:26 | -26.03280 | 150.37016 | 34237 ft | 424 kts | 296° |
| 2026-04-30 06:26 | -26.00487 | 150.31239 | 34238 ft | 424 kts | 296° |
| 2026-04-30 06:27 | -25.97692 | 150.25464 | 34232 ft | 424 kts | 296° |
| 2026-04-30 06:27 | -25.94899 | 150.19708 | 34232 ft | 423 kts | 296° |
| 2026-04-30 06:28 | -25.92103 | 150.13951 | 34235 ft | 423 kts | 296° |
| 2026-04-30 06:28 | -25.89316 | 150.08191 | 34229 ft | 423 kts | 296° |
| 2026-04-30 06:29 | -25.86524 | 150.02437 | 34228 ft | 423 kts | 296° |
| 2026-04-30 06:29 | -25.83743 | 149.96729 | 34228 ft | 423 kts | 296° |
| 2026-04-30 06:30 | -25.80957 | 149.90976 | 34220 ft | 422 kts | 293° |
| 2026-04-30 06:30 | -25.79234 | 149.84796 | 34224 ft | 419 kts | 282° |
| 2026-04-30 06:31 | -25.77894 | 149.78488 | 34223 ft | 420 kts | 282° |
| 2026-04-30 06:31 | -25.76532 | 149.72194 | 34216 ft | 420 kts | 282° |
| 2026-04-30 06:32 | -25.75158 | 149.65887 | 34215 ft | 420 kts | 282° |
| 2026-04-30 06:32 | -25.73796 | 149.59594 | 34215 ft | 420 kts | 282° |
| 2026-04-30 06:33 | -25.72431 | 149.53289 | 34215 ft | 420 kts | 282° |
| 2026-04-30 06:33 | -25.71061 | 149.46993 | 34216 ft | 420 kts | 282° |
| 2026-04-30 06:34 | -25.69689 | 149.40722 | 34219 ft | 420 kts | 282° |
| 2026-04-30 06:34 | -25.68319 | 149.34432 | 34218 ft | 420 kts | 282° |
| 2026-04-30 06:35 | -25.66941 | 149.28138 | 34223 ft | 420 kts | 282° |
| 2026-04-30 06:35 | -25.65564 | 149.21840 | 34221 ft | 420 kts | 282° |
| 2026-04-30 06:36 | -25.64178 | 149.15563 | 34222 ft | 420 kts | 282° |
| 2026-04-30 06:36 | -25.62790 | 149.09271 | 34222 ft | 420 kts | 282° |
| 2026-04-30 06:37 | -25.61407 | 149.02997 | 34223 ft | 420 kts | 282° |
| 2026-04-30 06:37 | -25.60016 | 148.96703 | 34225 ft | 419 kts | 282° |
| 2026-04-30 06:38 | -25.58623 | 148.90435 | 34219 ft | 419 kts | 282° |
| 2026-04-30 06:38 | -25.57233 | 148.84202 | 34230 ft | 419 kts | 282° |
| 2026-04-30 06:39 | -25.55846 | 148.77947 | 34232 ft | 418 kts | 282° |
| 2026-04-30 06:39 | -25.54457 | 148.71691 | 34229 ft | 418 kts | 282° |
| 2026-04-30 06:40 | -25.53065 | 148.65449 | 34217 ft | 418 kts | 282° |
| 2026-04-30 06:40 | -25.51660 | 148.59206 | 34226 ft | 417 kts | 282° |
| 2026-04-30 06:41 | -25.50256 | 148.52981 | 34219 ft | 417 kts | 282° |
| 2026-04-30 06:41 | -25.48849 | 148.46748 | 34227 ft | 417 kts | 282° |
| 2026-04-30 06:42 | -25.47449 | 148.40537 | 34220 ft | 416 kts | 282° |
| 2026-04-30 06:42 | -25.46044 | 148.34317 | 34218 ft | 416 kts | 282° |
| 2026-04-30 06:43 | -25.44635 | 148.28106 | 34218 ft | 416 kts | 282° |
| 2026-04-30 06:43 | -25.43242 | 148.21944 | 34224 ft | 415 kts | 282° |
| 2026-04-30 06:44 | -25.41838 | 148.15753 | 34215 ft | 415 kts | 282° |
| 2026-04-30 06:44 | -25.40422 | 148.09543 | 34204 ft | 415 kts | 283° |
| 2026-04-30 06:45 | -25.39004 | 148.03356 | 34212 ft | 415 kts | 283° |
| 2026-04-30 06:45 | -25.37594 | 147.97179 | 34210 ft | 415 kts | 282° |
| 2026-04-30 06:46 | -25.36176 | 147.90994 | 34212 ft | 415 kts | 283° |
| 2026-04-30 06:46 | -25.34756 | 147.84805 | 34212 ft | 414 kts | 283° |
| 2026-04-30 06:47 | -25.33332 | 147.78637 | 34212 ft | 414 kts | 283° |
| 2026-04-30 06:47 | -25.31921 | 147.72501 | 34209 ft | 414 kts | 283° |
| 2026-04-30 06:48 | -25.30483 | 147.66296 | 34202 ft | 414 kts | 283° |
| 2026-04-30 06:48 | -25.29062 | 147.60186 | 34206 ft | 414 kts | 283° |
| 2026-04-30 06:49 | -25.27630 | 147.54025 | 34207 ft | 413 kts | 283° |
| 2026-04-30 06:49 | -25.26203 | 147.47875 | 34204 ft | 413 kts | 283° |
| 2026-04-30 06:50 | -25.24776 | 147.41732 | 34205 ft | 413 kts | 282° |
| 2026-04-30 06:50 | -25.23336 | 147.35583 | 34197 ft | 413 kts | 283° |
| 2026-04-30 06:51 | -25.21895 | 147.29458 | 34195 ft | 412 kts | 283° |
| 2026-04-30 06:51 | -25.20459 | 147.23324 | 34194 ft | 412 kts | 282° |
| 2026-04-30 06:52 | -25.19026 | 147.17198 | 34190 ft | 412 kts | 282° |
| 2026-04-30 06:52 | -25.17592 | 147.11081 | 34189 ft | 411 kts | 282° |
| 2026-04-30 06:53 | -25.16151 | 147.04974 | 34188 ft | 411 kts | 282° |
| 2026-04-30 06:53 | -25.14706 | 146.98871 | 34186 ft | 411 kts | 282° |
| 2026-04-30 06:54 | -25.13253 | 146.92768 | 34187 ft | 411 kts | 282° |
| 2026-04-30 06:54 | -25.11816 | 146.86713 | 34178 ft | 410 kts | 282° |
| 2026-04-30 06:55 | -25.10378 | 146.80619 | 34179 ft | 410 kts | 282° |
| 2026-04-30 06:55 | -25.08923 | 146.74539 | 34183 ft | 410 kts | 283° |
| 2026-04-30 06:56 | -25.07468 | 146.68459 | 34181 ft | 410 kts | 282° |
| 2026-04-30 06:56 | -25.06014 | 146.62375 | 34179 ft | 409 kts | 282° |
| 2026-04-30 06:57 | -25.04558 | 146.56310 | 34178 ft | 409 kts | 282° |
| 2026-04-30 06:57 | -25.03099 | 146.50248 | 34175 ft | 409 kts | 282° |
| 2026-04-30 06:58 | -25.01648 | 146.44186 | 34175 ft | 409 kts | 282° |
| 2026-04-30 06:58 | -25.00201 | 146.38163 | 34173 ft | 409 kts | 282° |
| 2026-04-30 06:59 | -24.98742 | 146.32108 | 34173 ft | 408 kts | 282° |
| 2026-04-30 06:59 | -24.97277 | 146.26053 | 34171 ft | 408 kts | 282° |
| 2026-04-30 07:00 | -24.95812 | 146.20012 | 34171 ft | 408 kts | 282° |
| 2026-04-30 07:00 | -24.94343 | 146.13977 | 34167 ft | 407 kts | 282° |
| 2026-04-30 07:01 | -24.92881 | 146.07982 | 34169 ft | 407 kts | 282° |
| 2026-04-30 07:01 | -24.91416 | 146.01962 | 34172 ft | 407 kts | 282° |
| 2026-04-30 07:02 | -24.89945 | 145.95950 | 34173 ft | 407 kts | 283° |
| 2026-04-30 07:02 | -24.88476 | 145.89932 | 34170 ft | 406 kts | 282° |
| 2026-04-30 07:03 | -24.87002 | 145.83934 | 34166 ft | 406 kts | 283° |
| 2026-04-30 07:03 | -24.85528 | 145.77922 | 34172 ft | 406 kts | 283° |
| 2026-04-30 07:04 | -24.84053 | 145.71924 | 34169 ft | 406 kts | 283° |
| 2026-04-30 07:04 | -24.82573 | 145.65929 | 34168 ft | 406 kts | 283° |
| 2026-04-30 07:05 | -24.80363 | 145.56980 | 34165 ft | 405 kts | 283° |
| 2026-04-30 07:05 | -24.78881 | 145.50995 | 34165 ft | 405 kts | 283° |
| 2026-04-30 07:06 | -24.77398 | 145.45016 | 34162 ft | 405 kts | 283° |
| 2026-04-30 07:06 | -24.76155 | 145.40000 | 34163 ft | 405 kts | 283° |
| 2026-04-30 07:07 | -24.74672 | 145.34028 | 34160 ft | 405 kts | 283° |
| 2026-04-30 07:07 | -24.73175 | 145.28066 | 34156 ft | 405 kts | 283° |
| 2026-04-30 07:08 | -24.71686 | 145.22133 | 34159 ft | 405 kts | 283° |
| 2026-04-30 07:08 | -24.70194 | 145.16166 | 34159 ft | 405 kts | 283° |
| 2026-04-30 07:09 | -24.68702 | 145.10200 | 34156 ft | 405 kts | 283° |
| 2026-04-30 07:09 | -24.67200 | 145.04234 | 34150 ft | 405 kts | 283° |
| 2026-04-30 07:10 | -24.65700 | 144.98269 | 34154 ft | 405 kts | 283° |
| 2026-04-30 07:10 | -24.64200 | 144.92290 | 34155 ft | 405 kts | 283° |
| 2026-04-30 07:11 | -24.62705 | 144.86370 | 34152 ft | 405 kts | 283° |
| 2026-04-30 07:11 | -24.61191 | 144.80400 | 34158 ft | 405 kts | 283° |
| 2026-04-30 07:12 | -24.59679 | 144.74434 | 34159 ft | 405 kts | 283° |
| 2026-04-30 07:12 | -24.58160 | 144.68472 | 34152 ft | 406 kts | 283° |
| 2026-04-30 07:13 | -24.56633 | 144.62502 | 34151 ft | 406 kts | 283° |
| 2026-04-30 07:13 | -24.55115 | 144.56526 | 34155 ft | 406 kts | 283° |
| 2026-04-30 07:14 | -24.53600 | 144.50555 | 34156 ft | 406 kts | 283° |
| 2026-04-30 07:14 | -24.52075 | 144.44588 | 34159 ft | 406 kts | 283° |
| 2026-04-30 07:15 | -24.50555 | 144.38673 | 34156 ft | 406 kts | 283° |
| 2026-04-30 07:15 | -24.49000 | 144.32633 | 34151 ft | 407 kts | 283° |
| 2026-04-30 07:16 | -24.47463 | 144.26659 | 34150 ft | 407 kts | 283° |
| 2026-04-30 07:16 | -24.45931 | 144.20713 | 34154 ft | 407 kts | 283° |
| 2026-04-30 07:17 | -24.44388 | 144.14736 | 34147 ft | 407 kts | 283° |
| 2026-04-30 07:18 | -24.42073 | 144.05759 | 34151 ft | 408 kts | 283° |
| 2026-04-30 07:18 | -24.40527 | 143.99777 | 34157 ft | 408 kts | 283° |
| 2026-04-30 07:19 | -24.38968 | 143.93797 | 34155 ft | 408 kts | 284° |
| 2026-04-30 07:19 | -24.37408 | 143.87805 | 34145 ft | 408 kts | 283° |
| 2026-04-30 07:20 | -24.35846 | 143.81817 | 34163 ft | 409 kts | 284° |
| 2026-04-30 07:20 | -24.34274 | 143.75818 | 34149 ft | 409 kts | 284° |
| 2026-04-30 07:21 | -24.32705 | 143.69832 | 34157 ft | 409 kts | 284° |
| 2026-04-30 07:21 | -24.31138 | 143.63833 | 34152 ft | 409 kts | 284° |
| 2026-04-30 07:22 | -24.28794 | 143.54874 | 34153 ft | 409 kts | 284° |
| 2026-04-30 07:22 | -24.27205 | 143.48833 | 34148 ft | 409 kts | 284° |
| 2026-04-30 07:23 | -24.25402 | 143.42915 | 34140 ft | 412 kts | 293° |
| 2026-04-30 07:23 | -24.22861 | 143.37320 | 34145 ft | 413 kts | 293° |
| 2026-04-30 07:24 | -24.20287 | 143.31684 | 34145 ft | 413 kts | 293° |
| 2026-04-30 07:24 | -24.17713 | 143.26059 | 34141 ft | 413 kts | 294° |
| 2026-04-30 07:25 | -24.15133 | 143.20426 | 34141 ft | 414 kts | 293° |
| 2026-04-30 07:25 | -24.12560 | 143.14788 | 34141 ft | 414 kts | 293° |
| 2026-04-30 07:26 | -24.09985 | 143.09147 | 34137 ft | 414 kts | 293° |
| 2026-04-30 07:26 | -24.07410 | 143.03517 | 34138 ft | 414 kts | 293° |
| 2026-04-30 07:27 | -24.04824 | 142.97889 | 34140 ft | 414 kts | 294° |
| 2026-04-30 07:27 | -24.02236 | 142.92266 | 34139 ft | 414 kts | 293° |
| 2026-04-30 07:28 | -23.99644 | 142.86625 | 34134 ft | 414 kts | 293° |
| 2026-04-30 07:28 | -23.97077 | 142.81039 | 34133 ft | 414 kts | 293° |
| 2026-04-30 07:29 | -23.94481 | 142.75402 | 34133 ft | 414 kts | 293° |
| 2026-04-30 07:29 | -23.91898 | 142.69783 | 34132 ft | 414 kts | 293° |
| 2026-04-30 07:30 | -23.87996 | 142.61358 | 34131 ft | 414 kts | 294° |
| 2026-04-30 07:31 | -23.85395 | 142.55747 | 34131 ft | 414 kts | 293° |
| 2026-04-30 07:31 | -23.82793 | 142.50131 | 34130 ft | 414 kts | 293° |
| 2026-04-30 07:32 | -23.80194 | 142.44515 | 34130 ft | 414 kts | 293° |
| 2026-04-30 07:32 | -23.77589 | 142.38896 | 34130 ft | 414 kts | 293° |
| 2026-04-30 07:33 | -23.75003 | 142.33343 | 34122 ft | 415 kts | 293° |
| 2026-04-30 07:33 | -23.72374 | 142.27697 | 34126 ft | 415 kts | 293° |
| 2026-04-30 07:34 | -23.69764 | 142.22088 | 34126 ft | 415 kts | 293° |
| 2026-04-30 07:34 | -23.67140 | 142.16463 | 34122 ft | 415 kts | 293° |
| 2026-04-30 07:35 | -23.64512 | 142.10843 | 34121 ft | 415 kts | 293° |
| 2026-04-30 07:35 | -23.61887 | 142.05228 | 34117 ft | 415 kts | 293° |
| 2026-04-30 07:36 | -23.59261 | 141.99619 | 34122 ft | 415 kts | 293° |
| 2026-04-30 07:36 | -23.56634 | 141.94007 | 34119 ft | 416 kts | 293° |
| 2026-04-30 07:37 | -23.54004 | 141.88393 | 34115 ft | 416 kts | 293° |
| 2026-04-30 07:37 | -23.51364 | 141.82782 | 34114 ft | 416 kts | 293° |
| 2026-04-30 07:38 | -23.48727 | 141.77182 | 34109 ft | 416 kts | 293° |
| 2026-04-30 07:38 | -23.46085 | 141.71567 | 34109 ft | 416 kts | 293° |
| 2026-04-30 07:39 | -23.43461 | 141.66008 | 34107 ft | 416 kts | 293° |
| 2026-04-30 07:39 | -23.40817 | 141.60404 | 34102 ft | 416 kts | 293° |
| 2026-04-30 07:40 | -23.38178 | 141.54807 | 34100 ft | 416 kts | 293° |
| 2026-04-30 07:40 | -23.35519 | 141.49198 | 34097 ft | 416 kts | 293° |
| 2026-04-30 07:41 | -23.32868 | 141.43603 | 34097 ft | 416 kts | 293° |
| 2026-04-30 07:41 | -23.30213 | 141.37998 | 34100 ft | 416 kts | 293° |
| 2026-04-30 07:42 | -23.27546 | 141.32398 | 34098 ft | 417 kts | 293° |
| 2026-04-30 07:42 | -23.24880 | 141.26799 | 34095 ft | 417 kts | 293° |
| 2026-04-30 07:43 | -23.22236 | 141.21240 | 34092 ft | 417 kts | 293° |
| 2026-04-30 07:43 | -23.19575 | 141.15643 | 34092 ft | 417 kts | 292° |
| 2026-04-30 07:44 | -23.16916 | 141.10050 | 34092 ft | 416 kts | 293° |
| 2026-04-30 07:44 | -23.14251 | 141.04460 | 34086 ft | 416 kts | 293° |
| 2026-04-30 07:45 | -23.11580 | 140.98879 | 34083 ft | 417 kts | 293° |
| 2026-04-30 07:45 | -23.08897 | 140.93284 | 34085 ft | 417 kts | 293° |
| 2026-04-30 07:46 | -23.06225 | 140.87709 | 34086 ft | 417 kts | 292° |
| 2026-04-30 07:46 | -23.03548 | 140.82118 | 34083 ft | 417 kts | 293° |
| 2026-04-30 07:47 | -23.00863 | 140.76523 | 34087 ft | 417 kts | 292° |
| 2026-04-30 07:47 | -22.98182 | 140.70943 | 34086 ft | 417 kts | 293° |
| 2026-04-30 07:48 | -22.95523 | 140.65424 | 34088 ft | 418 kts | 292° |
| 2026-04-30 07:48 | -22.92800 | 140.59782 | 34085 ft | 418 kts | 293° |
| 2026-04-30 07:49 | -22.90090 | 140.54191 | 34086 ft | 418 kts | 293° |
| 2026-04-30 07:49 | -22.87414 | 140.48651 | 34085 ft | 418 kts | 292° |
| 2026-04-30 07:50 | -22.84704 | 140.43030 | 34081 ft | 418 kts | 293° |
| 2026-04-30 07:50 | -22.82025 | 140.37495 | 34082 ft | 418 kts | 293° |
| 2026-04-30 07:51 | -22.79320 | 140.31920 | 34080 ft | 418 kts | 293° |
| 2026-04-30 07:51 | -22.76615 | 140.26341 | 34077 ft | 418 kts | 293° |
| 2026-04-30 07:52 | -22.73909 | 140.20767 | 34077 ft | 418 kts | 293° |
| 2026-04-30 07:52 | -22.71196 | 140.15197 | 34074 ft | 418 kts | 293° |
| 2026-04-30 07:53 | -22.68941 | 140.10576 | 34072 ft | 418 kts | 293° |
| 2026-04-30 07:53 | -22.65773 | 140.04061 | 34078 ft | 418 kts | 293° |
| 2026-04-30 07:54 | -22.63524 | 139.99434 | 34078 ft | 418 kts | 293° |
| 2026-04-30 07:54 | -22.60804 | 139.93868 | 34078 ft | 418 kts | 293° |
| 2026-04-30 07:55 | -22.58076 | 139.88294 | 34076 ft | 419 kts | 293° |
| 2026-04-30 07:55 | -22.55353 | 139.82721 | 34073 ft | 419 kts | 293° |
| 2026-04-30 07:56 | -22.52626 | 139.77157 | 34071 ft | 419 kts | 293° |
| 2026-04-30 07:56 | -22.49891 | 139.71592 | 34070 ft | 419 kts | 293° |
| 2026-04-30 07:57 | -22.47157 | 139.66029 | 34069 ft | 418 kts | 293° |
| 2026-04-30 07:57 | -22.44434 | 139.60469 | 34062 ft | 418 kts | 293° |
| 2026-04-30 07:58 | -22.41724 | 139.54966 | 34057 ft | 419 kts | 293° |
| 2026-04-30 07:58 | -22.39004 | 139.49468 | 34064 ft | 419 kts | 293° |
| 2026-04-30 07:59 | -22.36264 | 139.43915 | 34059 ft | 419 kts | 293° |
| 2026-04-30 07:59 | -22.33532 | 139.38360 | 34062 ft | 419 kts | 293° |
| 2026-04-30 08:00 | -22.29414 | 139.30019 | 34062 ft | 419 kts | 293° |
| 2026-04-30 08:00 | -22.26663 | 139.24471 | 34064 ft | 419 kts | 293° |
| 2026-04-30 08:01 | -22.23911 | 139.18923 | 34071 ft | 419 kts | 293° |
| 2026-04-30 08:01 | -22.21156 | 139.13367 | 34065 ft | 419 kts | 293° |
| 2026-04-30 08:02 | -22.17035 | 139.05057 | 34062 ft | 419 kts | 293° |
| 2026-04-30 08:03 | -22.11514 | 138.93965 | 34054 ft | 419 kts | 293° |
| 2026-04-30 08:04 | -22.08760 | 138.88430 | 34055 ft | 419 kts | 293° |
| 2026-04-30 08:04 | -22.05989 | 138.82886 | 34047 ft | 419 kts | 293° |
| 2026-04-30 08:05 | -22.03221 | 138.77354 | 34051 ft | 419 kts | 293° |
| 2026-04-30 08:05 | -22.00474 | 138.71850 | 34051 ft | 419 kts | 293° |
| 2026-04-30 08:06 | -21.97709 | 138.66324 | 34049 ft | 419 kts | 293° |
| 2026-04-30 08:06 | -21.94937 | 138.60794 | 34038 ft | 420 kts | 293° |
| 2026-04-30 08:07 | -21.92161 | 138.55262 | 34050 ft | 420 kts | 293° |
| 2026-04-30 08:07 | -21.89384 | 138.49743 | 34042 ft | 420 kts | 294° |
| 2026-04-30 08:08 | -21.86594 | 138.44203 | 34036 ft | 420 kts | 293° |
| 2026-04-30 08:08 | -21.83813 | 138.38670 | 34036 ft | 420 kts | 293° |
| 2026-04-30 08:09 | -21.81039 | 138.33147 | 34036 ft | 420 kts | 293° |
| 2026-04-30 08:09 | -21.78257 | 138.27625 | 34042 ft | 420 kts | 294° |
| 2026-04-30 08:10 | -21.75467 | 138.22093 | 34038 ft | 420 kts | 294° |
| 2026-04-30 08:10 | -21.72697 | 138.16607 | 34036 ft | 420 kts | 294° |
| 2026-04-30 08:11 | -21.69901 | 138.11085 | 34038 ft | 420 kts | 294° |
| 2026-04-30 08:11 | -21.67103 | 138.05563 | 34038 ft | 420 kts | 294° |
| 2026-04-30 08:12 | -21.64299 | 138.00048 | 34034 ft | 420 kts | 294° |
| 2026-04-30 08:12 | -21.61497 | 137.94520 | 34040 ft | 420 kts | 294° |
| 2026-04-30 08:13 | -21.58693 | 137.89003 | 34037 ft | 420 kts | 294° |
| 2026-04-30 08:13 | -21.55910 | 137.83529 | 34038 ft | 420 kts | 294° |
| 2026-04-30 08:14 | -21.53104 | 137.78022 | 34036 ft | 420 kts | 294° |
| 2026-04-30 08:14 | -21.50307 | 137.72534 | 34037 ft | 420 kts | 294° |
| 2026-04-30 08:15 | -21.47482 | 137.66990 | 34037 ft | 420 kts | 294° |
| 2026-04-30 08:15 | -21.44662 | 137.61472 | 34037 ft | 421 kts | 294° |
| 2026-04-30 08:16 | -21.41845 | 137.55966 | 34036 ft | 421 kts | 294° |
| 2026-04-30 08:16 | -21.39024 | 137.50464 | 34035 ft | 421 kts | 294° |
| 2026-04-30 08:17 | -21.36226 | 137.44999 | 34038 ft | 421 kts | 294° |
| 2026-04-30 08:17 | -21.33413 | 137.39494 | 34035 ft | 421 kts | 294° |
| 2026-04-30 08:18 | -21.30573 | 137.33957 | 34034 ft | 421 kts | 294° |
| 2026-04-30 08:18 | -21.27762 | 137.28503 | 34033 ft | 421 kts | 294° |
| 2026-04-30 08:19 | -21.24931 | 137.23012 | 34033 ft | 421 kts | 294° |
| 2026-04-30 08:19 | -21.22095 | 137.17504 | 34030 ft | 421 kts | 294° |
| 2026-04-30 08:20 | -21.19257 | 137.12005 | 34029 ft | 422 kts | 294° |
| 2026-04-30 08:20 | -21.16417 | 137.06494 | 34032 ft | 422 kts | 294° |
| 2026-04-30 08:21 | -21.13583 | 137.00994 | 34025 ft | 422 kts | 294° |
| 2026-04-30 08:21 | -21.10738 | 136.95486 | 34031 ft | 422 kts | 294° |
| 2026-04-30 08:22 | -21.07908 | 136.90018 | 34032 ft | 423 kts | 294° |
| 2026-04-30 08:22 | -21.05057 | 136.84517 | 34033 ft | 423 kts | 294° |
| 2026-04-30 08:23 | -21.02207 | 136.79020 | 34029 ft | 423 kts | 294° |
| 2026-04-30 08:23 | -20.99348 | 136.73504 | 34026 ft | 423 kts | 294° |
| 2026-04-30 08:24 | -20.96484 | 136.67990 | 34029 ft | 423 kts | 294° |
| 2026-04-30 08:24 | -20.93624 | 136.62483 | 34033 ft | 424 kts | 294° |
| 2026-04-30 08:25 | -20.90755 | 136.56979 | 34036 ft | 424 kts | 294° |
| 2026-04-30 08:25 | -20.87875 | 136.51473 | 34028 ft | 424 kts | 294° |
| 2026-04-30 08:26 | -20.84992 | 136.45962 | 34030 ft | 424 kts | 294° |
| 2026-04-30 08:26 | -20.82118 | 136.40447 | 34028 ft | 424 kts | 294° |
| 2026-04-30 08:27 | -20.79268 | 136.34971 | 34027 ft | 424 kts | 294° |
| 2026-04-30 08:27 | -20.76394 | 136.29464 | 34027 ft | 425 kts | 294° |
| 2026-04-30 08:28 | -20.73508 | 136.23955 | 34022 ft | 425 kts | 294° |
| 2026-04-30 08:28 | -20.70614 | 136.18447 | 34024 ft | 425 kts | 294° |
| 2026-04-30 08:29 | -20.67705 | 136.12935 | 34026 ft | 425 kts | 294° |
| 2026-04-30 08:29 | -20.64809 | 136.07437 | 34022 ft | 426 kts | 294° |
| 2026-04-30 08:30 | -20.61898 | 136.01919 | 34018 ft | 426 kts | 294° |
| 2026-04-30 08:30 | -20.58993 | 135.96405 | 34028 ft | 426 kts | 294° |
| 2026-04-30 08:31 | -20.56092 | 135.90899 | 34025 ft | 426 kts | 294° |
| 2026-04-30 08:31 | -20.53175 | 135.85383 | 34023 ft | 426 kts | 294° |
| 2026-04-30 08:32 | -20.50258 | 135.79877 | 34019 ft | 427 kts | 294° |
| 2026-04-30 08:32 | -20.47344 | 135.74367 | 34021 ft | 427 kts | 294° |
| 2026-04-30 08:33 | -20.44425 | 135.68848 | 34017 ft | 427 kts | 294° |
| 2026-04-30 08:33 | -20.41501 | 135.63340 | 34020 ft | 427 kts | 294° |
| 2026-04-30 08:34 | -20.38587 | 135.57869 | 34019 ft | 427 kts | 294° |
| 2026-04-30 08:34 | -20.35652 | 135.52356 | 34020 ft | 427 kts | 294° |
| 2026-04-30 08:35 | -20.32729 | 135.46850 | 34019 ft | 427 kts | 294° |
| 2026-04-30 08:35 | -20.29792 | 135.41327 | 34019 ft | 428 kts | 294° |
| 2026-04-30 08:36 | -20.26860 | 135.35821 | 34019 ft | 428 kts | 294° |
| 2026-04-30 08:36 | -20.23920 | 135.30305 | 34021 ft | 428 kts | 294° |
| 2026-04-30 08:37 | -20.20975 | 135.24794 | 34019 ft | 428 kts | 294° |
| 2026-04-30 08:37 | -20.18028 | 135.19284 | 34016 ft | 428 kts | 294° |
| 2026-04-30 08:38 | -20.15079 | 135.13768 | 34019 ft | 428 kts | 294° |
| 2026-04-30 08:38 | -20.12126 | 135.08256 | 34017 ft | 429 kts | 295° |
| 2026-04-30 08:39 | -20.09165 | 135.02744 | 34015 ft | 429 kts | 295° |
| 2026-04-30 08:39 | -20.06706 | 134.98167 | 34014 ft | 429 kts | 295° |
| 2026-04-30 08:40 | -20.03747 | 134.92659 | 34015 ft | 429 kts | 295° |
| 2026-04-30 08:40 | -20.00787 | 134.87142 | 34014 ft | 429 kts | 295° |
| 2026-04-30 08:41 | -19.97819 | 134.81624 | 34015 ft | 430 kts | 295° |
| 2026-04-30 08:41 | -19.94853 | 134.76118 | 34017 ft | 430 kts | 295° |
| 2026-04-30 08:42 | -19.91883 | 134.70603 | 34013 ft | 430 kts | 295° |
| 2026-04-30 08:42 | -19.88911 | 134.65094 | 34014 ft | 430 kts | 295° |
| 2026-04-30 08:43 | -19.85936 | 134.59584 | 34015 ft | 430 kts | 295° |
| 2026-04-30 08:43 | -19.82951 | 134.54073 | 34016 ft | 430 kts | 295° |
| 2026-04-30 08:44 | -19.79968 | 134.48570 | 34012 ft | 430 kts | 295° |
| 2026-04-30 08:44 | -19.76976 | 134.43057 | 34009 ft | 430 kts | 295° |
| 2026-04-30 08:45 | -19.73988 | 134.37553 | 34011 ft | 431 kts | 295° |
| 2026-04-30 08:45 | -19.71008 | 134.32049 | 34013 ft | 431 kts | 295° |
| 2026-04-30 08:46 | -19.68008 | 134.26522 | 34009 ft | 431 kts | 295° |
| 2026-04-30 08:46 | -19.65012 | 134.21021 | 34008 ft | 431 kts | 295° |
| 2026-04-30 08:47 | -19.62041 | 134.15500 | 34009 ft | 431 kts | 294° |
| 2026-04-30 08:47 | -19.59257 | 134.09916 | 34007 ft | 430 kts | 293° |
| 2026-04-30 08:48 | -19.56518 | 134.04285 | 34005 ft | 430 kts | 293° |
| 2026-04-30 08:48 | -19.53742 | 133.98659 | 34006 ft | 430 kts | 294° |
| 2026-04-30 08:49 | -19.50929 | 133.93042 | 34008 ft | 431 kts | 294° |
| 2026-04-30 08:49 | -19.48114 | 133.87440 | 34002 ft | 431 kts | 294° |
| 2026-04-30 08:50 | -19.45295 | 133.81823 | 34005 ft | 431 kts | 294° |
| 2026-04-30 08:50 | -19.42479 | 133.76216 | 34001 ft | 431 kts | 294° |
| 2026-04-30 08:51 | -19.39660 | 133.70606 | 34003 ft | 431 kts | 294° |
| 2026-04-30 08:51 | -19.36859 | 133.65035 | 34000 ft | 431 kts | 294° |
| 2026-04-30 08:52 | -19.34047 | 133.59439 | 34004 ft | 431 kts | 294° |
| 2026-04-30 08:52 | -19.31228 | 133.53836 | 33995 ft | 431 kts | 294° |
| 2026-04-30 08:53 | -19.28405 | 133.48225 | 33994 ft | 431 kts | 294° |
| 2026-04-30 08:53 | -19.25570 | 133.42626 | 33995 ft | 432 kts | 294° |
| 2026-04-30 08:54 | -19.22732 | 133.37024 | 33999 ft | 432 kts | 294° |
| 2026-04-30 08:54 | -19.19905 | 133.31423 | 33998 ft | 432 kts | 294° |
| 2026-04-30 08:55 | -19.17070 | 133.25817 | 33997 ft | 432 kts | 294° |
| 2026-04-30 08:55 | -19.14235 | 133.20212 | 33994 ft | 432 kts | 294° |
| 2026-04-30 08:56 | -19.11400 | 133.14604 | 33996 ft | 432 kts | 295° |
| 2026-04-30 08:56 | -19.08554 | 133.09000 | 33990 ft | 433 kts | 295° |
| 2026-04-30 08:57 | -19.05705 | 133.03397 | 33993 ft | 433 kts | 295° |
| 2026-04-30 08:57 | -19.02875 | 132.97832 | 33993 ft | 433 kts | 295° |
| 2026-04-30 08:58 | -19.00008 | 132.92190 | 33997 ft | 433 kts | 295° |
| 2026-04-30 08:58 | -18.97170 | 132.86621 | 33996 ft | 433 kts | 295° |
| 2026-04-30 08:59 | -18.94302 | 132.81018 | 33993 ft | 433 kts | 295° |
| 2026-04-30 08:59 | -18.91446 | 132.75434 | 33988 ft | 433 kts | 295° |
| 2026-04-30 09:00 | -18.88584 | 132.69824 | 33991 ft | 433 kts | 295° |
| 2026-04-30 09:00 | -18.85732 | 132.64235 | 33991 ft | 433 kts | 295° |
| 2026-04-30 09:01 | -18.82869 | 132.58638 | 33994 ft | 433 kts | 295° |
| 2026-04-30 09:01 | -18.79997 | 132.53048 | 34000 ft | 432 kts | 295° |
| 2026-04-30 09:02 | -18.75697 | 132.44680 | 33997 ft | 432 kts | 295° |
| 2026-04-30 09:02 | -18.72821 | 132.39108 | 33996 ft | 432 kts | 295° |
| 2026-04-30 09:03 | -18.69944 | 132.33536 | 33992 ft | 432 kts | 295° |
| 2026-04-30 09:03 | -18.67099 | 132.28017 | 33995 ft | 432 kts | 295° |
| 2026-04-30 09:04 | -18.64226 | 132.22447 | 33993 ft | 432 kts | 295° |
| 2026-04-30 09:04 | -18.61350 | 132.16885 | 33993 ft | 431 kts | 295° |
| 2026-04-30 09:05 | -18.58483 | 132.11340 | 33995 ft | 431 kts | 295° |
| 2026-04-30 09:05 | -18.55598 | 132.05791 | 33992 ft | 431 kts | 296° |
| 2026-04-30 09:06 | -18.52725 | 132.00254 | 33988 ft | 431 kts | 295° |
| 2026-04-30 09:06 | -18.49848 | 131.94703 | 33988 ft | 431 kts | 295° |
| 2026-04-30 09:07 | -18.46976 | 131.89170 | 33986 ft | 431 kts | 295° |
| 2026-04-30 09:07 | -18.44100 | 131.83628 | 33985 ft | 430 kts | 296° |
| 2026-04-30 09:08 | -18.41228 | 131.78101 | 33984 ft | 430 kts | 296° |
| 2026-04-30 09:08 | -18.38361 | 131.72616 | 33995 ft | 430 kts | 296° |
| 2026-04-30 09:09 | -18.35484 | 131.67105 | 33993 ft | 430 kts | 296° |
| 2026-04-30 09:09 | -18.32606 | 131.61589 | 33997 ft | 429 kts | 296° |
| 2026-04-30 09:10 | -18.29727 | 131.56070 | 33986 ft | 429 kts | 296° |
| 2026-04-30 09:10 | -18.26853 | 131.50569 | 33993 ft | 429 kts | 296° |
| 2026-04-30 09:11 | -18.23978 | 131.45076 | 33980 ft | 429 kts | 296° |
| 2026-04-30 09:11 | -18.21098 | 131.39571 | 33987 ft | 429 kts | 296° |
| 2026-04-30 09:12 | -18.18209 | 131.34073 | 33996 ft | 429 kts | 296° |
| 2026-04-30 09:12 | -18.15328 | 131.28584 | 33984 ft | 429 kts | 296° |
| 2026-04-30 09:13 | -18.12472 | 131.23133 | 33994 ft | 429 kts | 296° |
| 2026-04-30 09:13 | -18.09583 | 131.17612 | 33982 ft | 428 kts | 296° |
| 2026-04-30 09:14 | -18.06713 | 131.12167 | 33985 ft | 428 kts | 296° |
| 2026-04-30 09:14 | -18.03824 | 131.06692 | 33984 ft | 428 kts | 296° |
| 2026-04-30 09:15 | -18.00937 | 131.01215 | 33984 ft | 428 kts | 296° |
| 2026-04-30 09:15 | -17.98056 | 130.95736 | 33990 ft | 428 kts | 296° |
| 2026-04-30 09:16 | -17.95177 | 130.90271 | 33995 ft | 428 kts | 296° |
| 2026-04-30 09:16 | -17.92287 | 130.84806 | 33994 ft | 427 kts | 296° |
| 2026-04-30 09:17 | -17.89423 | 130.79393 | 33995 ft | 427 kts | 296° |
| 2026-04-30 09:17 | -17.86538 | 130.73933 | 33984 ft | 427 kts | 296° |
| 2026-04-30 09:18 | -17.83645 | 130.68475 | 33987 ft | 427 kts | 296° |
| 2026-04-30 09:18 | -17.80759 | 130.63034 | 33992 ft | 427 kts | 296° |
| 2026-04-30 09:19 | -17.77867 | 130.57576 | 33989 ft | 427 kts | 296° |
| 2026-04-30 09:19 | -17.74983 | 130.52155 | 33991 ft | 427 kts | 296° |
| 2026-04-30 09:20 | -17.72092 | 130.46715 | 33984 ft | 427 kts | 296° |
| 2026-04-30 09:20 | -17.69214 | 130.41276 | 33992 ft | 427 kts | 296° |
| 2026-04-30 09:21 | -17.66343 | 130.35901 | 33984 ft | 427 kts | 296° |
| 2026-04-30 09:21 | -17.63442 | 130.30469 | 33984 ft | 427 kts | 296° |
| 2026-04-30 09:22 | -17.60553 | 130.25050 | 33992 ft | 427 kts | 296° |
| 2026-04-30 09:22 | -17.57774 | 130.19824 | 33993 ft | 427 kts | 296° |
| 2026-04-30 09:23 | -17.54953 | 130.14538 | 33990 ft | 427 kts | 296° |
| 2026-04-30 09:23 | -17.52678 | 130.10286 | 33988 ft | 427 kts | 296° |
| 2026-04-30 09:24 | -17.52350 | 130.09671 | 33989 ft | 426 kts | 296° |
| 2026-04-30 09:24 | -17.51594 | 130.08263 | 33990 ft | 420 kts | 297° |
| 2026-04-30 09:25 | -17.50201 | 130.05679 | 33986 ft | 405 kts | 296° |
| 2026-04-30 09:25 | -17.48844 | 130.03157 | 33995 ft | 391 kts | 296° |
| 2026-04-30 09:25 | -17.47536 | 130.00714 | 33989 ft | 378 kts | 296° |
| 2026-04-30 09:25 | -17.46274 | 129.98354 | 33990 ft | 365 kts | 296° |
| 2026-04-30 09:26 | -17.45054 | 129.96068 | 33989 ft | 353 kts | 296° |
| 2026-04-30 09:26 | -17.44255 | 129.94570 | 33988 ft | 345 kts | 296° |
| 2026-04-30 09:26 | -17.42747 | 129.91746 | 33989 ft | 326 kts | 296° |
| 2026-04-30 09:26 | -17.42026 | 129.90400 | 33990 ft | 318 kts | 296° |
| 2026-04-30 09:27 | -17.39840 | 129.86316 | 33997 ft | 328 kts | 296° |
| 2026-04-30 09:27 | -17.37563 | 129.82059 | 33991 ft | 342 kts | 296° |
| 2026-04-30 09:28 | -17.35177 | 129.77608 | 33994 ft | 359 kts | 296° |
| 2026-04-30 09:28 | -17.32672 | 129.72948 | 33988 ft | 377 kts | 296° |
| 2026-04-30 09:29 | -17.30042 | 129.68056 | 33990 ft | 394 kts | 296° |
| 2026-04-30 09:29 | -17.27284 | 129.62942 | 33987 ft | 411 kts | 297° |
| 2026-04-30 09:30 | -17.24416 | 129.57624 | 33987 ft | 428 kts | 297° |
| 2026-04-30 09:30 | -17.21437 | 129.52079 | 33984 ft | 445 kts | 297° |
| 2026-04-30 09:31 | -17.18380 | 129.46408 | 33983 ft | 457 kts | 297° |
| 2026-04-30 09:31 | -17.15458 | 129.41016 | 33978 ft | 465 kts | 297° |
| 2026-04-30 09:32 | -17.12253 | 129.35100 | 33975 ft | 472 kts | 297° |
| 2026-04-30 09:32 | -17.09067 | 129.29206 | 33968 ft | 447 kts | 297° |
| 2026-04-30 09:33 | -17.07563 | 129.26430 | 33973 ft | 434 kts | 297° |
| 2026-04-30 09:33 | -17.06084 | 129.23697 | 33972 ft | 430 kts | 297° |
| 2026-04-30 09:33 | -17.03151 | 129.18267 | 33970 ft | 428 kts | 297° |
| 2026-04-30 09:34 | -17.00220 | 129.12867 | 33973 ft | 427 kts | 297° |
| 2026-04-30 09:34 | -16.97284 | 129.07453 | 33967 ft | 427 kts | 297° |
| 2026-04-30 09:35 | -16.94353 | 129.02058 | 33968 ft | 427 kts | 297° |
| 2026-04-30 09:35 | -16.91442 | 128.96685 | 33967 ft | 427 kts | 297° |
| 2026-04-30 09:36 | -16.88496 | 128.91255 | 33966 ft | 427 kts | 297° |
| 2026-04-30 09:36 | -16.85577 | 128.85880 | 33966 ft | 428 kts | 297° |
| 2026-04-30 09:37 | -16.82643 | 128.80489 | 33961 ft | 428 kts | 297° |
| 2026-04-30 09:37 | -16.79690 | 128.75083 | 33966 ft | 428 kts | 297° |
| 2026-04-30 09:38 | -16.76740 | 128.69692 | 33965 ft | 428 kts | 297° |
| 2026-04-30 09:38 | -16.73800 | 128.64306 | 33967 ft | 428 kts | 297° |
| 2026-04-30 09:39 | -16.70855 | 128.58913 | 33962 ft | 428 kts | 297° |
| 2026-04-30 09:39 | -16.67900 | 128.53514 | 33964 ft | 428 kts | 297° |
| 2026-04-30 09:40 | -16.64963 | 128.48151 | 33965 ft | 428 kts | 297° |
| 2026-04-30 09:40 | -16.61995 | 128.42777 | 33969 ft | 428 kts | 298° |
| 2026-04-30 09:41 | -16.58901 | 128.37453 | 33968 ft | 429 kts | 299° |
| 2026-04-30 09:41 | -16.55776 | 128.32158 | 33971 ft | 429 kts | 299° |
| 2026-04-30 09:42 | -16.52665 | 128.26850 | 33973 ft | 429 kts | 299° |
| 2026-04-30 09:42 | -16.49573 | 128.21540 | 33972 ft | 429 kts | 299° |
| 2026-04-30 09:43 | -16.46496 | 128.16274 | 33972 ft | 429 kts | 299° |
| 2026-04-30 09:43 | -16.43381 | 128.10942 | 33974 ft | 429 kts | 299° |
| 2026-04-30 09:44 | -16.40285 | 128.05646 | 33974 ft | 429 kts | 299° |
| 2026-04-30 09:44 | -16.37183 | 128.00348 | 33974 ft | 429 kts | 299° |
| 2026-04-30 09:45 | -16.34073 | 127.95047 | 33977 ft | 429 kts | 299° |
| 2026-04-30 09:45 | -16.30974 | 127.89752 | 33976 ft | 429 kts | 299° |
| 2026-04-30 09:46 | -16.27851 | 127.84427 | 33977 ft | 429 kts | 299° |
| 2026-04-30 09:46 | -16.24731 | 127.79142 | 33973 ft | 429 kts | 300° |
| 2026-04-30 09:47 | -16.21611 | 127.73837 | 33973 ft | 429 kts | 299° |
| 2026-04-30 09:47 | -16.18496 | 127.68534 | 33974 ft | 430 kts | 299° |
| 2026-04-30 09:48 | -16.15382 | 127.63236 | 33971 ft | 430 kts | 300° |
| 2026-04-30 09:48 | -16.12258 | 127.57936 | 33970 ft | 430 kts | 300° |
| 2026-04-30 09:49 | -16.09132 | 127.52634 | 33970 ft | 430 kts | 300° |
| 2026-04-30 09:49 | -16.06001 | 127.47331 | 33973 ft | 430 kts | 300° |
| 2026-04-30 09:50 | -16.02872 | 127.42025 | 33973 ft | 430 kts | 300° |
| 2026-04-30 09:50 | -15.99751 | 127.36735 | 33973 ft | 430 kts | 300° |
| 2026-04-30 09:51 | -15.96637 | 127.31467 | 33972 ft | 430 kts | 300° |
| 2026-04-30 09:51 | -15.93510 | 127.26172 | 33974 ft | 430 kts | 300° |
| 2026-04-30 09:52 | -15.90380 | 127.20883 | 33973 ft | 430 kts | 300° |
| 2026-04-30 09:52 | -15.87242 | 127.15589 | 33978 ft | 430 kts | 300° |
| 2026-04-30 09:53 | -15.84115 | 127.10312 | 33974 ft | 430 kts | 300° |
| 2026-04-30 09:53 | -15.80973 | 127.05022 | 33971 ft | 430 kts | 300° |
| 2026-04-30 09:54 | -15.77840 | 126.99740 | 33976 ft | 430 kts | 300° |
| 2026-04-30 09:54 | -15.74704 | 126.94460 | 33975 ft | 430 kts | 300° |
| 2026-04-30 09:55 | -15.71558 | 126.89172 | 33978 ft | 430 kts | 300° |
| 2026-04-30 09:55 | -15.68429 | 126.83904 | 33973 ft | 430 kts | 300° |
| 2026-04-30 09:56 | -15.65294 | 126.78621 | 33978 ft | 430 kts | 300° |
| 2026-04-30 09:56 | -15.62160 | 126.73362 | 33979 ft | 430 kts | 300° |
| 2026-04-30 09:57 | -15.59004 | 126.68073 | 33984 ft | 429 kts | 300° |
| 2026-04-30 09:57 | -15.55861 | 126.62805 | 33982 ft | 429 kts | 300° |
| 2026-04-30 09:58 | -15.52710 | 126.57532 | 33978 ft | 429 kts | 300° |
| 2026-04-30 09:58 | -15.49592 | 126.52317 | 33974 ft | 429 kts | 300° |
| 2026-04-30 09:59 | -15.43292 | 126.41782 | 33989 ft | 429 kts | 300° |
| 2026-04-30 10:00 | -15.38576 | 126.33904 | 33966 ft | 428 kts | 300° |
| 2026-04-30 10:01 | -15.33872 | 126.26058 | 33981 ft | 429 kts | 300° |
| 2026-04-30 10:02 | -15.29128 | 126.18155 | 33971 ft | 428 kts | 300° |
| 2026-04-30 10:02 | -15.25990 | 126.12920 | 33969 ft | 428 kts | 300° |
| 2026-04-30 10:03 | -15.22846 | 126.07685 | 33980 ft | 428 kts | 300° |
| 2026-04-30 10:03 | -15.19722 | 126.02482 | 33979 ft | 428 kts | 300° |
| 2026-04-30 10:04 | -15.16572 | 125.97241 | 33972 ft | 428 kts | 300° |
| 2026-04-30 10:04 | -15.13414 | 125.92002 | 33975 ft | 428 kts | 300° |
| 2026-04-30 10:05 | -15.10256 | 125.86774 | 33978 ft | 428 kts | 300° |
| 2026-04-30 10:05 | -15.07113 | 125.81558 | 33972 ft | 427 kts | 300° |
| 2026-04-30 10:06 | -15.03967 | 125.76330 | 33973 ft | 427 kts | 300° |
| 2026-04-30 10:06 | -15.00812 | 125.71121 | 33976 ft | 427 kts | 300° |
| 2026-04-30 10:07 | -14.97663 | 125.65906 | 33977 ft | 427 kts | 300° |
| 2026-04-30 10:07 | -14.94518 | 125.60695 | 33971 ft | 426 kts | 300° |
| 2026-04-30 10:08 | -14.91371 | 125.55502 | 33975 ft | 426 kts | 300° |
| 2026-04-30 10:08 | -14.88221 | 125.50305 | 33966 ft | 426 kts | 300° |
| 2026-04-30 10:09 | -14.85104 | 125.45156 | 33963 ft | 426 kts | 300° |
| 2026-04-30 10:09 | -14.81939 | 125.39929 | 33965 ft | 426 kts | 300° |
| 2026-04-30 10:10 | -14.78817 | 125.34776 | 33969 ft | 425 kts | 300° |
| 2026-04-30 10:10 | -14.75671 | 125.29595 | 33966 ft | 425 kts | 300° |
| 2026-04-30 10:11 | -14.73059 | 125.25292 | 33968 ft | 426 kts | 300° |
| 2026-04-30 10:11 | -14.69912 | 125.20111 | 33966 ft | 426 kts | 300° |
| 2026-04-30 10:12 | -14.66760 | 125.14927 | 33969 ft | 425 kts | 300° |
| 2026-04-30 10:12 | -14.63613 | 125.09763 | 33965 ft | 425 kts | 300° |
| 2026-04-30 10:13 | -14.60462 | 125.04603 | 33963 ft | 425 kts | 300° |
| 2026-04-30 10:13 | -14.57294 | 124.99417 | 33967 ft | 425 kts | 301° |
| 2026-04-30 10:14 | -14.54138 | 124.94250 | 33969 ft | 425 kts | 300° |
| 2026-04-30 10:14 | -14.49414 | 124.86507 | 33969 ft | 425 kts | 301° |
| 2026-04-30 10:15 | -14.46269 | 124.81367 | 33967 ft | 425 kts | 301° |
| 2026-04-30 10:15 | -14.43111 | 124.76197 | 33969 ft | 424 kts | 301° |
| 2026-04-30 10:16 | -14.39990 | 124.71093 | 33966 ft | 424 kts | 301° |
| 2026-04-30 10:17 | -14.35256 | 124.63362 | 33969 ft | 424 kts | 301° |
| 2026-04-30 10:17 | -14.30526 | 124.55656 | 33964 ft | 423 kts | 301° |
| 2026-04-30 10:18 | -14.27379 | 124.50530 | 33967 ft | 423 kts | 301° |
| 2026-04-30 10:19 | -14.22657 | 124.42841 | 33963 ft | 423 kts | 301° |
| 2026-04-30 10:19 | -14.19514 | 124.37714 | 33963 ft | 423 kts | 301° |
| 2026-04-30 10:20 | -14.16365 | 124.32596 | 33963 ft | 423 kts | 301° |
| 2026-04-30 10:20 | -14.11629 | 124.24927 | 33965 ft | 422 kts | 301° |
| 2026-04-30 10:21 | -14.08512 | 124.19845 | 33962 ft | 422 kts | 301° |
| 2026-04-30 10:21 | -14.05365 | 124.14736 | 33968 ft | 423 kts | 301° |
| 2026-04-30 10:22 | -14.02210 | 124.09630 | 33967 ft | 422 kts | 301° |
| 2026-04-30 10:22 | -13.99053 | 124.04510 | 33964 ft | 422 kts | 301° |
| 2026-04-30 10:23 | -13.95901 | 123.99405 | 33965 ft | 422 kts | 301° |
| 2026-04-30 10:23 | -13.92767 | 123.94333 | 33969 ft | 422 kts | 301° |
| 2026-04-30 10:24 | -13.89622 | 123.89243 | 33969 ft | 421 kts | 301° |
| 2026-04-30 10:24 | -13.86474 | 123.84157 | 33966 ft | 421 kts | 301° |
| 2026-04-30 10:25 | -13.83328 | 123.79078 | 33959 ft | 421 kts | 301° |
| 2026-04-30 10:25 | -13.80181 | 123.74002 | 33958 ft | 421 kts | 301° |
| 2026-04-30 10:26 | -13.77032 | 123.68915 | 33961 ft | 421 kts | 301° |
| 2026-04-30 10:26 | -13.73875 | 123.63822 | 33960 ft | 422 kts | 301° |
| 2026-04-30 10:27 | -13.70722 | 123.58743 | 33962 ft | 422 kts | 301° |
| 2026-04-30 10:27 | -13.67564 | 123.53655 | 33969 ft | 422 kts | 301° |
| 2026-04-30 10:28 | -13.64407 | 123.48579 | 33964 ft | 422 kts | 301° |
| 2026-04-30 10:28 | -13.61247 | 123.43494 | 33967 ft | 421 kts | 301° |
| 2026-04-30 10:29 | -13.58087 | 123.38415 | 33964 ft | 421 kts | 302° |
| 2026-04-30 10:29 | -13.54946 | 123.33373 | 33964 ft | 421 kts | 302° |
| 2026-04-30 10:30 | -13.51797 | 123.28300 | 33963 ft | 421 kts | 301° |
| 2026-04-30 10:30 | -13.48641 | 123.23222 | 33961 ft | 421 kts | 301° |
| 2026-04-30 10:31 | -13.45483 | 123.18158 | 33960 ft | 421 kts | 302° |
| 2026-04-30 10:31 | -13.42313 | 123.13094 | 33959 ft | 421 kts | 302° |
| 2026-04-30 10:32 | -13.39148 | 123.08037 | 33957 ft | 421 kts | 302° |
| 2026-04-30 10:32 | -13.35978 | 123.02960 | 33961 ft | 422 kts | 302° |
| 2026-04-30 10:33 | -13.32805 | 122.97885 | 33962 ft | 422 kts | 302° |
| 2026-04-30 10:33 | -13.29641 | 122.92810 | 33960 ft | 422 kts | 302° |
| 2026-04-30 10:34 | -13.26479 | 122.87736 | 33964 ft | 422 kts | 302° |
| 2026-04-30 10:34 | -13.23300 | 122.82662 | 33963 ft | 422 kts | 302° |
| 2026-04-30 10:35 | -13.20123 | 122.77593 | 33964 ft | 422 kts | 302° |
| 2026-04-30 10:35 | -13.16941 | 122.72531 | 33963 ft | 422 kts | 302° |
| 2026-04-30 10:36 | -13.13765 | 122.67460 | 33965 ft | 422 kts | 302° |
| 2026-04-30 10:36 | -13.10609 | 122.62428 | 33965 ft | 422 kts | 302° |
| 2026-04-30 10:37 | -13.07429 | 122.57364 | 33965 ft | 422 kts | 302° |
| 2026-04-30 10:37 | -13.04250 | 122.52300 | 33961 ft | 422 kts | 302° |
| 2026-04-30 10:38 | -13.01073 | 122.47248 | 33962 ft | 422 kts | 302° |
| 2026-04-30 10:38 | -12.97893 | 122.42192 | 33961 ft | 422 kts | 302° |
| 2026-04-30 10:39 | -12.94709 | 122.37134 | 33961 ft | 422 kts | 302° |
| 2026-04-30 10:39 | -12.91550 | 122.32105 | 33961 ft | 422 kts | 302° |
| 2026-04-30 10:40 | -12.88350 | 122.27018 | 33959 ft | 422 kts | 302° |
| 2026-04-30 10:40 | -12.85159 | 122.21963 | 33959 ft | 422 kts | 302° |
| 2026-04-30 10:41 | -12.81986 | 122.16953 | 33956 ft | 422 kts | 302° |
| 2026-04-30 10:41 | -12.78796 | 122.11899 | 33957 ft | 422 kts | 302° |
| 2026-04-30 10:42 | -12.75622 | 122.06855 | 33958 ft | 422 kts | 302° |
| 2026-04-30 10:42 | -12.72433 | 122.01796 | 33958 ft | 422 kts | 302° |
| 2026-04-30 10:43 | -12.69245 | 121.96743 | 33954 ft | 422 kts | 302° |
| 2026-04-30 10:43 | -12.66056 | 121.91698 | 33956 ft | 422 kts | 302° |
| 2026-04-30 10:44 | -12.62845 | 121.86632 | 33953 ft | 423 kts | 302° |
| 2026-04-30 10:44 | -12.59650 | 121.81584 | 33951 ft | 423 kts | 302° |
| 2026-04-30 10:45 | -12.56455 | 121.76536 | 33949 ft | 423 kts | 302° |
| 2026-04-30 10:45 | -12.53246 | 121.71477 | 33954 ft | 423 kts | 302° |
| 2026-04-30 10:46 | -12.50058 | 121.66460 | 33952 ft | 423 kts | 302° |
| 2026-04-30 10:46 | -12.46852 | 121.61403 | 33950 ft | 423 kts | 302° |
| 2026-04-30 10:47 | -12.43640 | 121.56338 | 33948 ft | 424 kts | 302° |
| 2026-04-30 10:47 | -12.40426 | 121.51286 | 33948 ft | 424 kts | 302° |
| 2026-04-30 10:48 | -12.37215 | 121.46236 | 33948 ft | 424 kts | 302° |
| 2026-04-30 10:48 | -12.33999 | 121.41173 | 33947 ft | 424 kts | 302° |
| 2026-04-30 10:49 | -12.30778 | 121.36114 | 33945 ft | 424 kts | 302° |
| 2026-04-30 10:49 | -12.27570 | 121.31068 | 33948 ft | 424 kts | 302° |
| 2026-04-30 10:50 | -12.24343 | 121.26002 | 33950 ft | 424 kts | 302° |
| 2026-04-30 10:50 | -12.21122 | 121.20948 | 33948 ft | 424 kts | 302° |
| 2026-04-30 10:51 | -12.17905 | 121.15896 | 33945 ft | 424 kts | 302° |
| 2026-04-30 10:51 | -12.14679 | 121.10842 | 33948 ft | 424 kts | 302° |
| 2026-04-30 10:52 | -12.11454 | 121.05786 | 33945 ft | 425 kts | 302° |
| 2026-04-30 10:52 | -12.08273 | 121.00794 | 33944 ft | 425 kts | 302° |
| 2026-04-30 10:53 | -12.05003 | 120.95666 | 33920 ft | 425 kts | 301° |
| 2026-04-30 10:53 | -12.01801 | 120.90656 | 33931 ft | 424 kts | 301° |
| 2026-04-30 10:54 | -11.98627 | 120.85574 | 33938 ft | 423 kts | 298° |
| 2026-04-30 10:54 | -11.95761 | 120.80325 | 33941 ft | 423 kts | 296° |
| 2026-04-30 10:55 | -11.92991 | 120.75025 | 33938 ft | 423 kts | 296° |
| 2026-04-30 10:55 | -11.90167 | 120.69755 | 33939 ft | 423 kts | 297° |
| 2026-04-30 10:56 | -11.87787 | 120.65392 | 33940 ft | 423 kts | 297° |
| 2026-04-30 10:56 | -11.84913 | 120.60143 | 33940 ft | 423 kts | 297° |
| 2026-04-30 10:57 | -11.82026 | 120.54869 | 33937 ft | 423 kts | 297° |
| 2026-04-30 10:57 | -11.79160 | 120.49621 | 33938 ft | 423 kts | 297° |
| 2026-04-30 10:58 | -11.76306 | 120.44377 | 33939 ft | 423 kts | 297° |
| 2026-04-30 10:58 | -11.73452 | 120.39147 | 33938 ft | 423 kts | 297° |
| 2026-04-30 10:59 | -11.70581 | 120.33914 | 33937 ft | 424 kts | 297° |
| 2026-04-30 10:59 | -11.67712 | 120.28668 | 33936 ft | 424 kts | 297° |
| 2026-04-30 11:00 | -11.64831 | 120.23407 | 33936 ft | 424 kts | 297° |
| 2026-04-30 11:00 | -11.61955 | 120.18154 | 33931 ft | 424 kts | 297° |
| 2026-04-30 11:01 | -11.59087 | 120.12915 | 33934 ft | 424 kts | 297° |
| 2026-04-30 11:01 | -11.56204 | 120.07660 | 33936 ft | 424 kts | 297° |
| 2026-04-30 11:02 | -11.53333 | 120.02416 | 33937 ft | 424 kts | 297° |
| 2026-04-30 11:02 | -11.50448 | 119.97156 | 33935 ft | 424 kts | 297° |
| 2026-04-30 11:03 | -11.47560 | 119.91908 | 33935 ft | 425 kts | 297° |
| 2026-04-30 11:04 | -11.43231 | 119.84022 | 33933 ft | 425 kts | 297° |
| 2026-04-30 11:04 | -11.40348 | 119.78775 | 33933 ft | 425 kts | 297° |
| 2026-04-30 11:05 | -11.37559 | 119.73693 | 33938 ft | 425 kts | 297° |
| 2026-04-30 11:05 | -11.34663 | 119.68443 | 33933 ft | 425 kts | 297° |
| 2026-04-30 11:06 | -11.31769 | 119.63192 | 33934 ft | 425 kts | 297° |
| 2026-04-30 11:06 | -11.28871 | 119.57927 | 33940 ft | 426 kts | 297° |
| 2026-04-30 11:07 | -11.25974 | 119.52675 | 33935 ft | 426 kts | 297° |
| 2026-04-30 11:07 | -11.23072 | 119.47424 | 33935 ft | 426 kts | 297° |
| 2026-04-30 11:08 | -11.20166 | 119.42153 | 33937 ft | 426 kts | 297° |
| 2026-04-30 11:08 | -11.17262 | 119.36897 | 33937 ft | 426 kts | 297° |
| 2026-04-30 11:09 | -11.14350 | 119.31632 | 33940 ft | 426 kts | 297° |
| 2026-04-30 11:09 | -11.11453 | 119.26371 | 33941 ft | 426 kts | 297° |
| 2026-04-30 11:10 | -11.08547 | 119.21116 | 33941 ft | 426 kts | 297° |
| 2026-04-30 11:10 | -11.05632 | 119.15849 | 33941 ft | 426 kts | 297° |
| 2026-04-30 11:11 | -11.02718 | 119.10585 | 33941 ft | 426 kts | 297° |
| 2026-04-30 11:11 | -10.99800 | 119.05327 | 33939 ft | 426 kts | 297° |
| 2026-04-30 11:12 | -10.96894 | 119.00072 | 33944 ft | 426 kts | 297° |
| 2026-04-30 11:12 | -10.93978 | 118.94808 | 33944 ft | 427 kts | 297° |
| 2026-04-30 11:13 | -10.91080 | 118.89582 | 33945 ft | 427 kts | 297° |
| 2026-04-30 11:13 | -10.88165 | 118.84317 | 33944 ft | 427 kts | 297° |
| 2026-04-30 11:14 | -10.85252 | 118.79061 | 33942 ft | 427 kts | 297° |
| 2026-04-30 11:14 | -10.82324 | 118.73810 | 33943 ft | 427 kts | 297° |
| 2026-04-30 11:15 | -10.79391 | 118.68537 | 33948 ft | 427 kts | 297° |
| 2026-04-30 11:15 | -10.76468 | 118.63276 | 33946 ft | 428 kts | 298° |
| 2026-04-30 11:16 | -10.73532 | 118.58013 | 33948 ft | 428 kts | 297° |
| 2026-04-30 11:16 | -10.70608 | 118.52746 | 33949 ft | 428 kts | 297° |
| 2026-04-30 11:17 | -10.67673 | 118.47462 | 33952 ft | 428 kts | 297° |
| 2026-04-30 11:17 | -10.64738 | 118.42199 | 33946 ft | 428 kts | 298° |
| 2026-04-30 11:18 | -10.61795 | 118.36937 | 33947 ft | 429 kts | 298° |
| 2026-04-30 11:18 | -10.57394 | 118.29049 | 33948 ft | 429 kts | 298° |
| 2026-04-30 11:19 | -10.54460 | 118.23780 | 33946 ft | 429 kts | 298° |
| 2026-04-30 11:19 | -10.51516 | 118.18503 | 33947 ft | 429 kts | 298° |
| 2026-04-30 11:20 | -10.48573 | 118.13233 | 33947 ft | 429 kts | 298° |
| 2026-04-30 11:20 | -10.45623 | 118.07953 | 33942 ft | 429 kts | 298° |
| 2026-04-30 11:21 | -10.42677 | 118.02679 | 33945 ft | 429 kts | 298° |
| 2026-04-30 11:21 | -10.40496 | 117.98775 | 33946 ft | 429 kts | 298° |
| 2026-04-30 11:22 | -10.37534 | 117.93495 | 33942 ft | 430 kts | 298° |
| 2026-04-30 11:22 | -10.34583 | 117.88228 | 33941 ft | 430 kts | 298° |
| 2026-04-30 11:23 | -10.31625 | 117.82947 | 33942 ft | 430 kts | 298° |
| 2026-04-30 11:24 | -10.27182 | 117.75024 | 33937 ft | 430 kts | 298° |
| 2026-04-30 11:24 | -10.24214 | 117.69739 | 33939 ft | 431 kts | 298° |
| 2026-04-30 11:25 | -10.19764 | 117.61806 | 33939 ft | 431 kts | 298° |
| 2026-04-30 11:26 | -10.13847 | 117.51248 | 33938 ft | 432 kts | 298° |
| 2026-04-30 11:26 | -10.10867 | 117.45953 | 33097 ft | 437 kts | 298° |
| 2026-04-30 11:27 | -10.09363 | 117.43280 | 32224 ft | 443 kts | 298° |
| 2026-04-30 11:27 | -10.07834 | 117.40560 | 31684 ft | 445 kts | 298° |
| 2026-04-30 11:27 | -10.06299 | 117.37833 | 31135 ft | 444 kts | 298° |
| 2026-04-30 11:27 | -10.04770 | 117.35118 | 30615 ft | 442 kts | 298° |
| 2026-04-30 11:28 | -10.01696 | 117.29734 | 29557 ft | 439 kts | 299° |
| 2026-04-30 11:28 | -10.00138 | 117.27098 | 29014 ft | 436 kts | 299° |
| 2026-04-30 11:28 | -9.98568 | 117.24472 | 28499 ft | 434 kts | 300° |
| 2026-04-30 11:29 | -9.96998 | 117.21853 | 27995 ft | 431 kts | 300° |
| 2026-04-30 11:29 | -9.95447 | 117.19258 | 27502 ft | 429 kts | 300° |
| 2026-04-30 11:29 | -9.92371 | 117.14093 | 26565 ft | 425 kts | 300° |
| 2026-04-30 11:30 | -9.89342 | 117.08974 | 25675 ft | 422 kts | 300° |
| 2026-04-30 11:30 | -9.87838 | 117.06423 | 25243 ft | 420 kts | 300° |
| 2026-04-30 11:30 | -9.86340 | 117.03884 | 24818 ft | 419 kts | 301° |
| 2026-04-30 11:31 | -9.84845 | 117.01354 | 24393 ft | 418 kts | 301° |
| 2026-04-30 11:31 | -9.83345 | 116.98829 | 23978 ft | 416 kts | 301° |
| 2026-04-30 11:31 | -9.81853 | 116.96319 | 23571 ft | 415 kts | 301° |
| 2026-04-30 11:31 | -9.80368 | 116.93818 | 23096 ft | 413 kts | 301° |
| 2026-04-30 11:32 | -9.78892 | 116.91330 | 22612 ft | 412 kts | 301° |
| 2026-04-30 11:32 | -9.77419 | 116.88842 | 22135 ft | 409 kts | 301° |
| 2026-04-30 11:32 | -9.75958 | 116.86374 | 21668 ft | 407 kts | 301° |
| 2026-04-30 11:33 | -9.73071 | 116.81475 | 20743 ft | 402 kts | 300° |
| 2026-04-30 11:33 | -9.71712 | 116.79012 | 20304 ft | 399 kts | 299° |
| 2026-04-30 11:33 | -9.70409 | 116.76544 | 19853 ft | 396 kts | 298° |
| 2026-04-30 11:33 | -9.69132 | 116.74083 | 19426 ft | 393 kts | 298° |
| 2026-04-30 11:34 | -9.67864 | 116.71635 | 18996 ft | 389 kts | 298° |
| 2026-04-30 11:34 | -9.66603 | 116.69221 | 18571 ft | 386 kts | 298° |
| 2026-04-30 11:34 | -9.65354 | 116.66856 | 18156 ft | 383 kts | 299° |
| 2026-04-30 11:34 | -9.64093 | 116.64486 | 17873 ft | 377 kts | 299° |
| 2026-04-30 11:35 | -9.62877 | 116.62205 | 17874 ft | 380 kts | 299° |
| 2026-04-30 11:35 | -9.61588 | 116.59787 | 17874 ft | 380 kts | 299° |
| 2026-04-30 11:35 | -9.60329 | 116.57426 | 17876 ft | 381 kts | 299° |
| 2026-04-30 11:35 | -9.59070 | 116.55067 | 17877 ft | 380 kts | 299° |
| 2026-04-30 11:36 | -9.57812 | 116.52708 | 17874 ft | 380 kts | 299° |
| 2026-04-30 11:36 | -9.56563 | 116.50366 | 17745 ft | 378 kts | 299° |
| 2026-04-30 11:36 | -9.55714 | 116.48779 | 17749 ft | 379 kts | 299° |
| 2026-04-30 11:36 | -9.54052 | 116.45672 | 17745 ft | 379 kts | 299° |
| 2026-04-30 11:37 | -9.53201 | 116.44079 | 17751 ft | 379 kts | 299° |
| 2026-04-30 11:37 | -9.51539 | 116.40965 | 17605 ft | 375 kts | 299° |
| 2026-04-30 11:37 | -9.50725 | 116.39438 | 17443 ft | 368 kts | 299° |
| 2026-04-30 11:37 | -9.49528 | 116.37191 | 17240 ft | 358 kts | 299° |
| 2026-04-30 11:38 | -9.48362 | 116.35003 | 17233 ft | 352 kts | 299° |
| 2026-04-30 11:38 | -9.47195 | 116.32821 | 17226 ft | 352 kts | 299° |
| 2026-04-30 11:38 | -9.46024 | 116.30632 | 17226 ft | 352 kts | 299° |
| 2026-04-30 11:38 | -9.44860 | 116.28461 | 17231 ft | 352 kts | 299° |
| 2026-04-30 11:39 | -9.43691 | 116.26282 | 17237 ft | 352 kts | 299° |
| 2026-04-30 11:39 | -9.42556 | 116.24080 | 17234 ft | 352 kts | 294° |
| 2026-04-30 11:39 | -9.41787 | 116.21734 | 17228 ft | 353 kts | 282° |
| 2026-04-30 11:39 | -9.41481 | 116.19270 | 17237 ft | 352 kts | 271° |
| 2026-04-30 11:40 | -9.41443 | 116.16791 | 17235 ft | 353 kts | 270° |
| 2026-04-30 11:40 | -9.41400 | 116.14299 | 17231 ft | 353 kts | 271° |
| 2026-04-30 11:40 | -9.41352 | 116.11819 | 17233 ft | 353 kts | 271° |
| 2026-04-30 11:40 | -9.41301 | 116.09334 | 17235 ft | 353 kts | 271° |
| 2026-04-30 11:41 | -9.41241 | 116.06854 | 17238 ft | 353 kts | 271° |
| 2026-04-30 11:41 | -9.41184 | 116.04366 | 17239 ft | 353 kts | 271° |
| 2026-04-30 11:41 | -9.41132 | 116.01879 | 17237 ft | 353 kts | 271° |
| 2026-04-30 11:41 | -9.41085 | 115.99397 | 17236 ft | 353 kts | 271° |
| 2026-04-30 11:42 | -9.41040 | 115.96914 | 17233 ft | 353 kts | 271° |
| 2026-04-30 11:42 | -9.40995 | 115.94428 | 17237 ft | 353 kts | 271° |
| 2026-04-30 11:42 | -9.40949 | 115.91950 | 17235 ft | 353 kts | 271° |
| 2026-04-30 11:42 | -9.40903 | 115.89497 | 17237 ft | 353 kts | 271° |
| 2026-04-30 11:43 | -9.40854 | 115.86972 | 17228 ft | 353 kts | 271° |
| 2026-04-30 11:43 | -9.40806 | 115.84496 | 17237 ft | 353 kts | 271° |
| 2026-04-30 11:43 | -9.40758 | 115.82008 | 17237 ft | 353 kts | 271° |
| 2026-04-30 11:43 | -9.40708 | 115.79515 | 17233 ft | 353 kts | 271° |
| 2026-04-30 11:44 | -9.40658 | 115.77033 | 17236 ft | 353 kts | 271° |
| 2026-04-30 11:44 | -9.40608 | 115.74574 | 17233 ft | 353 kts | 271° |
| 2026-04-30 11:44 | -9.40555 | 115.72092 | 17238 ft | 353 kts | 271° |
| 2026-04-30 11:44 | -9.40501 | 115.69593 | 17238 ft | 354 kts | 271° |
| 2026-04-30 11:45 | -9.40456 | 115.67106 | 17235 ft | 353 kts | 271° |
| 2026-04-30 11:45 | -9.40416 | 115.64620 | 17236 ft | 353 kts | 271° |
| 2026-04-30 11:45 | -9.40373 | 115.62133 | 17236 ft | 353 kts | 271° |
| 2026-04-30 11:45 | -9.40323 | 115.59640 | 17239 ft | 353 kts | 271° |
| 2026-04-30 11:46 | -9.40273 | 115.57153 | 17240 ft | 353 kts | 271° |
| 2026-04-30 11:46 | -9.40222 | 115.54669 | 17239 ft | 353 kts | 271° |
| 2026-04-30 11:46 | -9.40171 | 115.52184 | 17234 ft | 353 kts | 271° |
| 2026-04-30 11:46 | -9.40120 | 115.49702 | 17237 ft | 353 kts | 271° |
| 2026-04-30 11:47 | -9.40069 | 115.47217 | 17235 ft | 353 kts | 271° |
| 2026-04-30 11:47 | -9.40017 | 115.44737 | 17234 ft | 353 kts | 271° |
| 2026-04-30 11:47 | -9.39969 | 115.42245 | 17234 ft | 353 kts | 271° |
| 2026-04-30 11:47 | -9.39922 | 115.39767 | 17234 ft | 353 kts | 271° |
| 2026-04-30 11:48 | -9.39874 | 115.37278 | 17225 ft | 353 kts | 271° |
| 2026-04-30 11:48 | -9.39825 | 115.34787 | 17233 ft | 353 kts | 271° |
| 2026-04-30 11:48 | -9.39775 | 115.32307 | 17234 ft | 353 kts | 271° |
| 2026-04-30 11:48 | -9.39723 | 115.29828 | 17234 ft | 353 kts | 271° |
| 2026-04-30 11:49 | -9.39672 | 115.27370 | 17234 ft | 353 kts | 271° |
| 2026-04-30 11:49 | -9.39624 | 115.24893 | 17095 ft | 350 kts | 271° |
| 2026-04-30 11:49 | -9.39576 | 115.22432 | 16696 ft | 348 kts | 271° |
| 2026-04-30 11:49 | -9.39527 | 115.19982 | 16313 ft | 346 kts | 271° |
| 2026-04-30 11:50 | -9.39478 | 115.17565 | 15944 ft | 344 kts | 271° |
| 2026-04-30 11:50 | -9.39430 | 115.15139 | 15579 ft | 342 kts | 271° |
| 2026-04-30 11:50 | -9.39382 | 115.12735 | 15224 ft | 340 kts | 271° |
| 2026-04-30 11:50 | -9.39335 | 115.10345 | 14872 ft | 339 kts | 271° |
| 2026-04-30 11:51 | -9.39287 | 115.07970 | 14530 ft | 337 kts | 271° |
| 2026-04-30 11:51 | -9.39237 | 115.05598 | 14185 ft | 335 kts | 271° |
| 2026-04-30 11:51 | -9.39189 | 115.03259 | 13848 ft | 333 kts | 271° |
| 2026-04-30 11:51 | -9.39142 | 115.00905 | 13480 ft | 332 kts | 271° |
| 2026-04-30 11:52 | -9.39013 | 114.98580 | 13115 ft | 329 kts | 282° |
| 2026-04-30 11:52 | -9.38142 | 114.96479 | 12730 ft | 325 kts | 307° |
| 2026-04-30 11:52 | -9.36445 | 114.94949 | 11949 ft | 333 kts | 335° |
| 2026-04-30 11:52 | -9.34219 | 114.94385 | 11427 ft | 329 kts | 360° |
| 2026-04-30 11:53 | -9.31980 | 114.94306 | 11300 ft | 318 kts | 360° |
| 2026-04-30 11:53 | -9.29783 | 114.94199 | 11077 ft | 311 kts | 359° |
| 2026-04-30 11:53 | -9.27631 | 114.94079 | 10764 ft | 308 kts | 359° |
| 2026-04-30 11:53 | -9.25496 | 114.93958 | 10433 ft | 306 kts | 359° |
| 2026-04-30 11:54 | -9.23384 | 114.93839 | 10101 ft | 305 kts | 359° |
| 2026-04-30 11:54 | -9.21269 | 114.93724 | 9765 ft | 303 kts | 359° |
| 2026-04-30 11:54 | -9.19163 | 114.93613 | 9409 ft | 301 kts | 359° |
| 2026-04-30 11:54 | -9.17110 | 114.93507 | 9157 ft | 296 kts | 359° |
| 2026-04-30 11:55 | -9.15064 | 114.93403 | 8845 ft | 293 kts | 359° |
| 2026-04-30 11:55 | -9.13030 | 114.93297 | 8516 ft | 292 kts | 359° |
| 2026-04-30 11:55 | -9.11008 | 114.93192 | 8197 ft | 290 kts | 359° |
| 2026-04-30 11:55 | -9.08998 | 114.93089 | 7874 ft | 288 kts | 359° |
| 2026-04-30 11:56 | -9.07011 | 114.92987 | 7559 ft | 287 kts | 359° |
| 2026-04-30 11:56 | -9.05019 | 114.92885 | 7238 ft | 285 kts | 359° |
| 2026-04-30 11:56 | -9.03045 | 114.92776 | 6923 ft | 284 kts | 358° |
| 2026-04-30 11:56 | -9.01075 | 114.92655 | 6627 ft | 282 kts | 358° |
| 2026-04-30 11:57 | -8.99123 | 114.92533 | 6312 ft | 280 kts | 358° |
| 2026-04-30 11:57 | -8.97178 | 114.92412 | 5984 ft | 279 kts | 358° |
| 2026-04-30 11:57 | -8.95245 | 114.92293 | 5660 ft | 278 kts | 358° |
| 2026-04-30 11:57 | -8.93320 | 114.92173 | 5340 ft | 276 kts | 358° |
| 2026-04-30 11:58 | -8.91412 | 114.92053 | 5036 ft | 275 kts | 358° |
| 2026-04-30 11:58 | -8.89509 | 114.91936 | 4730 ft | 273 kts | 358° |
| 2026-04-30 11:58 | -8.87618 | 114.91821 | 4414 ft | 271 kts | 358° |
| 2026-04-30 11:58 | -8.85730 | 114.91706 | 3943 ft | 274 kts | 358° |
| 2026-04-30 11:59 | -8.83759 | 114.91589 | 3268 ft | 288 kts | 358° |
| 2026-04-30 11:59 | -8.81802 | 114.91471 | 3064 ft | 272 kts | 358° |
| 2026-04-30 11:59 | -8.79918 | 114.91354 | 2995 ft | 269 kts | 358° |
| 2026-04-30 11:59 | -8.78060 | 114.91428 | 2998 ft | 267 kts | 18° |
| 2026-04-30 12:00 | -8.76506 | 114.92317 | 2998 ft | 246 kts | 47° |
| 2026-04-30 12:00 | -8.75651 | 114.93696 | 2882 ft | 222 kts | 74° |
| 2026-04-30 12:00 | -8.75476 | 114.95141 | 2783 ft | 205 kts | 92° |
| 2026-04-30 12:00 | -8.75496 | 114.96549 | 2683 ft | 195 kts | 92° |
| 2026-04-30 12:01 | -8.75506 | 114.97918 | 2588 ft | 191 kts | 91° |
| 2026-04-30 12:01 | -8.75513 | 114.99243 | 2498 ft | 189 kts | 91° |
| 2026-04-30 12:01 | -8.75489 | 115.00587 | 2366 ft | 188 kts | 89° |
| 2026-04-30 12:01 | -8.75437 | 115.01841 | 2233 ft | 173 kts | 88° |
| 2026-04-30 12:02 | -8.75383 | 115.03018 | 2071 ft | 159 kts | 88° |
| 2026-04-30 12:02 | -8.75337 | 115.04051 | 1940 ft | 147 kts | 88° |
| 2026-04-30 12:02 | -8.75296 | 115.05060 | 1832 ft | 142 kts | 89° |
| 2026-04-30 12:02 | -8.75257 | 115.06046 | 1723 ft | 140 kts | 89° |
| 2026-04-30 12:03 | -8.75218 | 115.07027 | 1591 ft | 139 kts | 89° |
| 2026-04-30 12:03 | -8.75150 | 115.08771 | 1257 ft | 139 kts | 89° |
| 2026-04-30 12:03 | -8.75137 | 115.09121 | 1193 ft | 137 kts | 89° |
| 2026-04-30 12:04 | -8.75099 | 115.10078 | 1014 ft | 139 kts | 89° |
| 2026-04-30 12:04 | -8.75061 | 115.11057 | 858 ft | 139 kts | 89° |
| 2026-04-30 12:04 | -8.75021 | 115.12039 | 688 ft | 139 kts | 89° |
| 2026-04-30 12:04 | -8.74982 | 115.13011 | 493 ft | 139 kts | 91° |
| 2026-04-30 12:05 | -8.74947 | 115.13994 | 328 ft | 139 kts | 90° |
| 2026-04-30 12:05 | -8.74912 | 115.14963 | 136 ft | 137 kts | 90° |
| 2026-04-30 12:05 | -8.74879 | 115.15912 | 30 ft | 126 kts | 90° |
| 2026-04-30 12:05 | -8.74847 | 115.16648 | 28 ft | 86 kts | 87° |
| 2026-04-30 12:06 | -8.74829 | 115.17082 | 28 ft | 44 kts | 89° |
| 2026-04-30 12:06 | -8.74808 | 115.17297 | 27 ft | 17 kts | 58° |
| 2026-04-30 12:06 | -8.74727 | 115.17315 | 30 ft | 11 kts | 357° |
| 2026-04-30 12:06 | -8.74659 | 115.17277 | 31 ft | 13 kts | 294° |
| 2026-04-30 12:07 | -8.74659 | 115.17175 | 32 ft | 16 kts | 268° |
| 2026-04-30 12:07 | -8.74659 | 115.17050 | 32 ft | 17 kts | 270° |
| 2026-04-30 12:07 | -8.74670 | 115.16935 | 32 ft | 14 kts | 268° |
| 2026-04-30 12:07 | -8.74674 | 115.16829 | 32 ft | 16 kts | 266° |
| 2026-04-30 12:08 | -8.74680 | 115.16713 | 32 ft | 14 kts | 267° |
| 2026-04-30 12:08 | -8.74684 | 115.16605 | 32 ft | 17 kts | 267° |
| 2026-04-30 12:08 | -8.74676 | 115.16544 | 31 ft | 7 kts | 317° |
| 2026-04-30 12:08 | -8.74624 | 115.16543 | 33 ft | 7 kts | 5° |
| 2026-04-30 12:09 | -8.74593 | 115.16542 | 33 ft | 5 kts | 356° |
| 2026-04-30 12:09 | -8.74576 | 115.16541 | 33 ft | 2 kts | 358° |
| 2026-04-30 12:09 | -8.74556 | 115.16541 | 33 ft | 3 kts | 358° |
| 2026-04-30 12:09 | -8.74553 | 115.16540 | 33 ft | 0 kts | 358° |